createdAt,value
2023-04-16T00:00:08.165Z,102028.25
2023-04-16T00:02:48.718Z,102030.00
2023-04-16T00:05:27.345Z,102027.38
2023-04-16T00:08:04.999Z,102024.75
2023-04-16T00:10:42.818Z,102034.38
2023-04-16T00:13:20.805Z,102043.13
2023-04-16T00:15:59.168Z,102037.88
2023-04-16T00:18:38.487Z,102040.50
2023-04-16T00:21:16.255Z,102038.72
2023-04-16T00:23:53.881Z,102033.47
2023-04-16T00:26:31.791Z,102031.72
2023-04-16T00:29:09.679Z,102029.13
2023-04-16T00:31:47.499Z,102027.38
2023-04-16T00:34:25.371Z,102030.00
2023-04-16T00:37:02.958Z,102035.25
2023-04-16T00:39:40.831Z,102029.13
2023-04-16T00:42:18.544Z,102016.91
2023-04-16T00:44:56.049Z,102023.00
2023-04-16T00:47:34.093Z,102016.91
2023-04-16T00:50:12.306Z,102018.63
2023-04-16T00:52:50.279Z,102037.88
2023-04-16T00:55:28.017Z,102034.34
2023-04-16T00:58:05.760Z,102034.34
2023-04-16T01:00:43.257Z,102032.63
2023-04-16T01:03:21.176Z,102020.38
2023-04-16T01:05:59.150Z,102031.75
2023-04-16T01:08:36.814Z,102040.50
2023-04-16T01:11:15.686Z,102039.59
2023-04-16T01:13:53.356Z,102039.59
2023-04-16T01:16:32.686Z,102025.63
2023-04-16T01:19:10.308Z,102032.59
2023-04-16T01:21:47.956Z,102023.00
2023-04-16T01:24:25.498Z,102022.13
2023-04-16T01:27:02.989Z,102026.50
2023-04-16T01:29:40.526Z,102023.88
2023-04-16T01:32:18.336Z,102020.41
2023-04-16T01:34:57.790Z,102030.88
2023-04-16T01:37:35.399Z,102019.50
2023-04-16T01:40:12.983Z,102023.00
2023-04-16T01:42:51.655Z,102025.63
2023-04-16T01:45:29.232Z,102016.94
2023-04-16T01:48:07.166Z,102017.78
2023-04-16T01:50:44.637Z,102022.19
2023-04-16T01:53:22.026Z,102022.19
2023-04-16T01:55:59.530Z,102025.66
2023-04-16T01:58:37.190Z,102025.66
2023-04-16T02:01:14.978Z,102029.16
2023-04-16T02:03:53.530Z,102027.41
2023-04-16T02:06:31.559Z,102030.91
2023-04-16T02:09:09.700Z,102032.66
2023-04-16T02:11:48.444Z,102025.66
2023-04-16T02:14:26.177Z,102032.66
2023-04-16T02:17:04.572Z,102027.41
2023-04-16T02:19:50.925Z,102030.91
2023-04-16T02:22:29.358Z,102030.03
2023-04-16T02:25:07.150Z,102028.28
2023-04-16T02:27:44.676Z,102037.88
2023-04-16T02:30:36.617Z,102030.03
2023-04-16T02:33:15.257Z,102034.41
2023-04-16T02:36:03.385Z,102034.41
2023-04-16T02:38:40.867Z,102034.41
2023-04-16T02:41:18.771Z,102028.28
2023-04-16T02:43:56.703Z,102034.41
2023-04-16T02:46:34.133Z,102029.16
2023-04-16T02:49:11.752Z,102032.66
2023-04-16T02:51:49.302Z,102035.28
2023-04-16T02:54:26.802Z,102038.75
2023-04-16T02:57:05.993Z,102036.13
2023-04-16T02:59:43.430Z,102035.28
2023-04-16T03:02:22.289Z,102036.16
2023-04-16T03:04:59.937Z,102035.28
2023-04-16T03:07:39.220Z,102037.91
2023-04-16T03:10:17.107Z,102037.91
2023-04-16T03:12:54.698Z,102040.53
2023-04-16T03:15:32.217Z,102044.88
2023-04-16T03:18:09.723Z,102052.75
2023-04-16T03:20:52.409Z,102051.00
2023-04-16T03:23:30.708Z,102051.00
2023-04-16T03:26:08.194Z,102063.25
2023-04-16T03:28:45.706Z,102056.25
2023-04-16T03:31:26.690Z,102055.38
2023-04-16T03:34:05.507Z,102054.50
2023-04-16T03:36:43.249Z,102060.59
2023-04-16T03:39:20.934Z,102065.00
2023-04-16T03:41:58.498Z,102064.13
2023-04-16T03:44:36.167Z,102063.25
2023-04-16T03:47:13.566Z,102057.13
2023-04-16T03:49:51.248Z,102055.38
2023-04-16T03:52:30.960Z,102069.34
2023-04-16T03:55:08.864Z,102064.13
2023-04-16T03:57:46.961Z,102064.13
2023-04-16T04:00:26.769Z,102066.75
2023-04-16T04:03:12.560Z,102068.50
2023-04-16T04:05:50.482Z,102069.34
2023-04-16T04:08:35.656Z,102062.38
2023-04-16T04:11:14.994Z,102071.09
2023-04-16T04:13:54.596Z,102064.97
2023-04-16T04:16:32.882Z,102061.50
2023-04-16T04:19:10.685Z,102068.50
2023-04-16T04:21:48.436Z,102066.75
2023-04-16T04:24:27.201Z,102070.22
2023-04-16T04:27:04.888Z,102074.63
2023-04-16T04:29:46.692Z,102068.50
2023-04-16T04:32:24.395Z,102069.38
2023-04-16T04:35:03.864Z,102076.34
2023-04-16T04:37:41.731Z,102076.34
2023-04-16T04:40:25.489Z,102085.09
2023-04-16T04:43:03.923Z,102073.75
2023-04-16T04:45:41.504Z,102085.09
2023-04-16T04:48:19.442Z,102085.97
2023-04-16T04:50:57.474Z,102092.97
2023-04-16T04:53:47.115Z,102093.81
2023-04-16T04:56:25.069Z,102093.81
2023-04-16T04:59:02.959Z,102089.47
2023-04-16T05:01:41.283Z,102094.72
2023-04-16T05:04:21.857Z,102096.47
2023-04-16T05:07:02.662Z,102096.47
2023-04-16T05:09:40.262Z,102109.56
2023-04-16T05:12:18.104Z,102104.31
2023-04-16T05:14:55.703Z,102104.31
2023-04-16T05:17:33.240Z,102104.31
2023-04-16T05:20:11.385Z,102109.56
2023-04-16T05:22:49.735Z,102112.19
2023-04-16T05:25:27.173Z,102113.06
2023-04-16T05:28:04.967Z,102111.31
2023-04-16T05:30:43.591Z,102114.81
2023-04-16T05:33:21.100Z,102106.94
2023-04-16T05:35:58.557Z,102118.31
2023-04-16T05:38:35.990Z,102107.81
2023-04-16T05:41:13.419Z,102120.06
2023-04-16T05:43:50.844Z,102120.06
2023-04-16T05:46:28.241Z,102113.06
2023-04-16T05:49:05.690Z,102132.31
2023-04-16T05:52:16.040Z,102122.69
2023-04-16T05:54:53.439Z,102126.16
2023-04-16T05:57:30.933Z,102117.44
2023-04-16T06:00:09.011Z,102127.06
2023-04-16T06:02:52.565Z,102125.31
2023-04-16T06:05:31.109Z,102120.94
2023-04-16T06:08:08.608Z,102128.81
2023-04-16T06:10:47.518Z,102134.06
2023-04-16T06:13:25.195Z,102130.56
2023-04-16T06:16:02.729Z,102130.56
2023-04-16T06:18:40.173Z,102136.69
2023-04-16T06:21:17.822Z,102139.31
2023-04-16T06:23:56.190Z,102138.41
2023-04-16T06:26:33.718Z,102144.56
2023-04-16T06:29:11.920Z,102148.94
2023-04-16T06:31:49.660Z,102147.19
2023-04-16T06:34:28.485Z,102154.16
2023-04-16T06:37:08.346Z,102158.56
2023-04-16T06:39:47.382Z,102161.19
2023-04-16T06:42:24.927Z,102159.44
2023-04-16T06:45:02.441Z,102172.53
2023-04-16T06:47:40.518Z,102172.56
2023-04-16T06:50:18.030Z,102176.91
2023-04-16T06:52:56.405Z,102173.41
2023-04-16T06:55:33.825Z,102172.53
2023-04-16T06:58:11.278Z,102180.41
2023-04-16T07:00:48.833Z,102181.28
2023-04-16T07:03:26.487Z,102170.78
2023-04-16T07:06:04.164Z,102183.03
2023-04-16T07:08:41.647Z,102185.66
2023-04-16T07:11:19.483Z,102188.28
2023-04-16T07:13:57.790Z,102184.78
2023-04-16T07:16:37.656Z,102192.66
2023-04-16T07:19:15.334Z,102205.78
2023-04-16T07:21:52.770Z,102197.91
2023-04-16T07:24:47.019Z,102201.41
2023-04-16T07:27:25.233Z,102204.03
2023-04-16T07:30:02.903Z,102202.28
2023-04-16T07:32:40.387Z,102205.75
2023-04-16T07:35:18.073Z,102209.28
2023-04-16T07:37:55.710Z,102205.75
2023-04-16T07:40:35.919Z,102208.34
2023-04-16T07:43:15.401Z,102216.25
2023-04-16T07:45:52.891Z,102217.97
2023-04-16T07:48:30.356Z,102225.88
2023-04-16T07:51:07.934Z,102224.97
2023-04-16T07:53:48.005Z,102228.47
2023-04-16T07:56:25.913Z,102228.47
2023-04-16T07:59:18.380Z,102238.13
2023-04-16T08:02:02.264Z,102238.09
2023-04-16T08:04:41.311Z,102233.72
2023-04-16T08:07:19.026Z,102242.47
2023-04-16T08:09:56.509Z,102241.63
2023-04-16T08:12:34.144Z,102245.13
2023-04-16T08:15:11.924Z,102245.97
2023-04-16T08:17:49.597Z,102248.59
2023-04-16T08:20:27.286Z,102256.47
2023-04-16T08:23:04.783Z,102245.91
2023-04-16T08:25:42.439Z,102256.41
2023-04-16T08:28:19.921Z,102252.88
2023-04-16T08:31:00.281Z,102261.63
2023-04-16T08:33:37.884Z,102265.97
2023-04-16T08:36:15.411Z,102266.00
2023-04-16T08:38:52.887Z,102260.72
2023-04-16T08:41:34.308Z,102264.22
2023-04-16T08:44:25.837Z,102269.47
2023-04-16T08:47:07.912Z,102258.94
2023-04-16T08:49:46.191Z,102272.94
2023-04-16T08:52:26.089Z,102286.97
2023-04-16T08:55:16.484Z,102279.94
2023-04-16T08:57:58.349Z,102284.31
2023-04-16T09:00:38.142Z,102285.16
2023-04-16T09:03:15.965Z,102286.91
2023-04-16T09:05:57.601Z,102286.00
2023-04-16T09:08:39.384Z,102288.63
2023-04-16T09:11:18.280Z,102287.72
2023-04-16T09:13:57.162Z,102287.69
2023-04-16T09:16:35.307Z,102289.44
2023-04-16T09:19:14.215Z,102289.41
2023-04-16T09:21:51.752Z,102296.34
2023-04-16T09:24:33.090Z,102291.91
2023-04-16T09:27:13.140Z,102294.47
2023-04-16T09:29:50.812Z,102301.44
2023-04-16T09:32:29.280Z,102306.69
2023-04-16T09:35:07.027Z,102304.91
2023-04-16T09:37:44.653Z,102308.41
2023-04-16T09:40:27.185Z,102303.06
2023-04-16T09:43:15.786Z,102305.66
2023-04-16T09:45:55.303Z,102310.03
2023-04-16T09:48:34.330Z,102308.25
2023-04-16T09:51:11.757Z,102308.22
2023-04-16T09:53:54.584Z,102312.56
2023-04-16T09:56:32.229Z,102316.91
2023-04-16T09:59:24.251Z,102309.75
2023-04-16T10:02:14.993Z,102315.81
2023-04-16T10:04:55.045Z,102318.34
2023-04-16T10:07:37.213Z,102317.31
2023-04-16T10:10:15.576Z,102316.34
2023-04-16T10:12:57.886Z,102317.16
2023-04-16T10:15:35.918Z,102316.25
2023-04-16T10:18:15.099Z,102316.13
2023-04-16T10:20:53.094Z,102316.03
2023-04-16T10:23:30.688Z,102311.44
2023-04-16T10:26:09.082Z,102311.34
2023-04-16T10:28:46.965Z,102319.13
2023-04-16T10:31:27.413Z,102315.44
2023-04-16T10:34:07.022Z,102312.63
2023-04-16T10:36:50.724Z,102322.25
2023-04-16T10:39:32.991Z,102322.25
2023-04-16T10:42:13.027Z,102316.88
2023-04-16T10:44:50.786Z,102316.78
2023-04-16T10:47:29.209Z,102314.06
2023-04-16T10:50:18.183Z,102319.94
2023-04-16T10:53:20.215Z,102322.25
2023-04-16T10:56:04.555Z,102316.88
2023-04-16T10:58:42.313Z,102316.97
2023-04-16T11:01:31.686Z,102321.44
2023-04-16T11:04:21.925Z,102309.97
2023-04-16T11:07:14.796Z,102308.91
2023-04-16T11:10:05.475Z,102312.34
2023-04-16T11:12:47.237Z,102308.72
2023-04-16T11:15:28.208Z,102308.69
2023-04-16T11:18:07.207Z,102301.53
2023-04-16T11:20:44.934Z,102308.50
2023-04-16T11:23:22.373Z,102312.88
2023-04-16T11:26:00.941Z,102312.91
2023-04-16T11:28:39.446Z,102318.31
2023-04-16T11:31:17.005Z,102311.44
2023-04-16T11:33:56.692Z,102307.97
2023-04-16T11:36:51.663Z,102314.94
2023-04-16T11:39:29.150Z,102313.19
2023-04-16T11:42:06.646Z,102304.47
2023-04-16T11:44:44.210Z,102310.75
2023-04-16T11:47:27.405Z,102300.25
2023-04-16T11:50:18.077Z,102298.31
2023-04-16T11:53:03.252Z,102307.63
2023-04-16T11:55:45.572Z,102302.81
2023-04-16T11:58:23.542Z,102301.84
2023-04-16T12:01:02.216Z,102308.00
2023-04-16T12:03:46.127Z,102305.97
2023-04-16T12:06:27.252Z,102319.72
2023-04-16T12:09:27.116Z,102319.56
2023-04-16T12:12:05.461Z,102322.31
2023-04-16T12:14:53.149Z,102326.69
2023-04-16T12:17:35.668Z,102314.25
2023-04-16T12:20:15.679Z,102331.00
2023-04-16T12:22:55.450Z,102328.38
2023-04-16T12:25:32.877Z,102332.06
2023-04-16T12:28:10.622Z,102328.72
2023-04-16T12:30:51.350Z,102336.00
2023-04-16T12:33:29.513Z,102329.03
2023-04-16T12:36:20.033Z,102328.06
2023-04-16T12:38:57.508Z,102335.06
2023-04-16T12:41:38.184Z,102332.41
2023-04-16T12:44:18.622Z,102330.78
2023-04-16T12:46:56.443Z,102330.00
2023-04-16T12:49:33.982Z,102331.72
2023-04-16T12:52:11.615Z,102336.97
2023-04-16T12:54:49.203Z,102330.78
2023-04-16T12:57:28.752Z,102328.97
2023-04-16T13:00:08.443Z,102335.94
2023-04-16T13:02:46.278Z,102328.78
2023-04-16T13:05:23.970Z,102334.94
2023-04-16T13:08:01.546Z,102335.03
2023-04-16T13:10:38.995Z,102330.75
2023-04-16T13:13:16.502Z,102332.63
2023-04-16T13:15:53.986Z,102331.81
2023-04-16T13:18:31.608Z,102334.56
2023-04-16T13:21:09.171Z,102331.09
2023-04-16T13:23:46.754Z,102332.09
2023-04-16T13:26:24.187Z,102324.22
2023-04-16T13:29:01.814Z,102336.59
2023-04-16T13:31:39.299Z,102336.69
2023-04-16T13:34:16.893Z,102325.28
2023-04-16T13:36:54.380Z,102334.13
2023-04-16T13:39:31.934Z,102331.47
2023-04-16T13:42:09.371Z,102327.09
2023-04-16T13:44:48.939Z,102333.34
2023-04-16T13:47:29.795Z,102333.38
2023-04-16T13:50:10.803Z,102325.44
2023-04-16T13:52:48.208Z,102331.56
2023-04-16T13:55:25.881Z,102325.44
2023-04-16T13:58:03.576Z,102331.56
2023-04-16T14:00:42.924Z,102332.44
2023-04-16T14:03:20.580Z,102329.75
2023-04-16T14:05:58.050Z,102327.94
2023-04-16T14:08:35.605Z,102327.03
2023-04-16T14:11:13.129Z,102328.78
2023-04-16T14:13:53.178Z,102329.66
2023-04-16T14:16:31.003Z,102323.34
2023-04-16T14:19:09.192Z,102324.94
2023-04-16T14:21:47.115Z,102321.25
2023-04-16T14:24:24.594Z,102325.56
2023-04-16T14:27:02.494Z,102316.66
2023-04-16T14:29:39.970Z,102320.13
2023-04-16T14:32:17.443Z,102317.34
2023-04-16T14:34:54.977Z,102309.03
2023-04-16T14:37:32.596Z,102318.59
2023-04-16T14:40:10.967Z,102319.44
2023-04-16T14:42:48.424Z,102316.84
2023-04-16T14:45:28.894Z,102322.22
2023-04-16T14:48:06.768Z,102322.22
2023-04-16T14:50:44.771Z,102331.94
2023-04-16T14:53:23.684Z,102330.16
2023-04-16T14:56:01.650Z,102328.50
2023-04-16T14:58:39.812Z,102321.63
2023-04-16T15:01:17.434Z,102321.13
2023-04-16T15:03:56.615Z,102319.41
2023-04-16T15:06:35.982Z,102326.53
2023-04-16T15:09:13.644Z,102331.19
2023-04-16T15:11:51.081Z,102327.88
2023-04-16T15:14:28.554Z,102338.56
2023-04-16T15:17:06.107Z,102323.75
2023-04-16T15:19:43.733Z,102334.53
2023-04-16T15:22:21.194Z,102342.66
2023-04-16T15:24:58.603Z,102335.78
2023-04-16T15:27:42.714Z,102334.09
2023-04-16T15:30:21.041Z,102336.91
2023-04-16T15:32:58.556Z,102337.91
2023-04-16T15:35:36.645Z,102333.69
2023-04-16T15:38:14.124Z,102336.50
2023-04-16T15:40:51.842Z,102342.78
2023-04-16T15:43:29.915Z,102345.53
2023-04-16T15:46:08.750Z,102348.31
2023-04-16T15:48:46.541Z,102349.31
2023-04-16T15:51:29.308Z,102351.13
2023-04-16T15:54:11.360Z,102345.00
2023-04-16T15:56:49.080Z,102343.28
2023-04-16T15:59:27.019Z,102341.59
2023-04-16T16:02:04.526Z,102335.50
2023-04-16T16:04:45.914Z,102342.50
2023-04-16T16:07:25.165Z,102338.16
2023-04-16T16:10:03.075Z,102341.72
2023-04-16T16:12:41.488Z,102344.41
2023-04-16T16:15:19.131Z,102339.13
2023-04-16T16:17:57.974Z,102338.22
2023-04-16T16:20:36.656Z,102344.41
2023-04-16T16:23:14.174Z,102340.94
2023-04-16T16:25:52.349Z,102352.41
2023-04-16T16:28:29.836Z,102351.59
2023-04-16T16:31:07.534Z,102356.00
2023-04-16T16:33:47.326Z,102353.38
2023-04-16T16:36:24.807Z,102353.44
2023-04-16T16:39:03.950Z,102361.38
2023-04-16T16:41:42.125Z,102357.00
2023-04-16T16:44:20.650Z,102357.88
2023-04-16T16:46:58.747Z,102355.22
2023-04-16T16:49:36.323Z,102351.72
2023-04-16T16:52:13.837Z,102345.59
2023-04-16T16:54:54.405Z,102352.59
2023-04-16T16:57:31.837Z,102355.22
2023-04-16T17:00:16.178Z,102356.94
2023-04-16T17:02:53.928Z,102358.66
2023-04-16T17:05:31.524Z,102363.97
2023-04-16T17:08:09.032Z,102357.84
2023-04-16T17:10:46.473Z,102362.28
2023-04-16T17:13:25.299Z,102365.81
2023-04-16T17:16:02.950Z,102366.75
2023-04-16T17:18:40.815Z,102364.13
2023-04-16T17:21:18.311Z,102371.16
2023-04-16T17:23:59.307Z,102358.03
2023-04-16T17:26:37.023Z,102371.19
2023-04-16T17:29:17.110Z,102360.69
2023-04-16T17:31:54.785Z,102366.84
2023-04-16T17:34:32.463Z,102353.69
2023-04-16T17:37:10.409Z,102360.75
2023-04-16T17:39:48.995Z,102359.91
2023-04-16T17:42:29.080Z,102359.06
2023-04-16T17:45:07.635Z,102368.75
2023-04-16T17:47:45.608Z,102366.13
2023-04-16T17:50:23.301Z,102367.03
2023-04-16T17:53:06.744Z,102379.34
2023-04-16T17:55:56.519Z,102367.09
2023-04-16T17:58:36.364Z,102382.94
2023-04-16T18:01:29.363Z,102380.34
2023-04-16T18:04:07.707Z,102383.88
2023-04-16T18:06:45.335Z,102379.50
2023-04-16T18:09:25.871Z,102390.06
2023-04-16T18:12:06.420Z,102386.56
2023-04-16T18:14:44.736Z,102384.81
2023-04-16T18:17:23.128Z,102382.22
2023-04-16T18:20:00.572Z,102390.13
2023-04-16T18:22:37.952Z,102397.16
2023-04-16T18:25:16.265Z,102388.41
2023-04-16T18:27:54.005Z,102383.16
2023-04-16T18:30:31.715Z,102375.25
2023-04-16T18:33:30.662Z,102390.22
2023-04-16T18:36:11.726Z,102399.03
2023-04-16T18:39:00.316Z,102401.69
2023-04-16T18:41:40.094Z,102399.94
2023-04-16T18:44:20.880Z,102406.09
2023-04-16T18:46:58.443Z,102399.97
2023-04-16T18:49:36.197Z,102398.25
2023-04-16T18:52:18.954Z,102400.00
2023-04-16T18:54:56.418Z,102394.75
2023-04-16T18:57:34.054Z,102389.50
2023-04-16T19:00:14.149Z,102404.44
2023-04-16T19:02:52.071Z,102411.47
2023-04-16T19:05:29.721Z,102403.56
2023-04-16T19:08:33.655Z,102409.72
2023-04-16T19:11:11.124Z,102406.25
2023-04-16T19:13:48.712Z,102401.88
2023-04-16T19:16:26.193Z,102421.16
2023-04-16T19:19:03.975Z,102408.00
2023-04-16T19:21:41.439Z,102421.13
2023-04-16T19:24:27.034Z,102416.75
2023-04-16T19:27:04.508Z,102430.78
2023-04-16T19:29:43.540Z,102421.16
2023-04-16T19:32:24.312Z,102411.53
2023-04-16T19:35:02.684Z,102416.78
2023-04-16T19:37:40.287Z,102424.66
2023-04-16T19:40:18.002Z,102423.78
2023-04-16T19:42:55.517Z,102422.03
2023-04-16T19:45:33.060Z,102429.03
2023-04-16T19:48:11.568Z,102428.16
2023-04-16T19:50:52.327Z,102436.03
2023-04-16T19:53:29.860Z,102438.66
2023-04-16T19:56:07.649Z,102428.19
2023-04-16T19:58:47.974Z,102433.44
2023-04-16T20:01:25.931Z,102423.78
2023-04-16T20:04:03.498Z,102434.28
2023-04-16T20:06:41.035Z,102436.91
2023-04-16T20:09:20.139Z,102436.03
2023-04-16T20:11:58.052Z,102438.66
2023-04-16T20:14:35.520Z,102439.53
2023-04-16T20:17:19.589Z,102447.41
2023-04-16T20:20:00.811Z,102446.53
2023-04-16T20:22:39.969Z,102448.28
2023-04-16T20:25:19.250Z,102444.78
2023-04-16T20:27:56.867Z,102450.94
2023-04-16T20:30:38.874Z,102449.16
2023-04-16T20:33:16.739Z,102455.31
2023-04-16T20:35:54.504Z,102454.44
2023-04-16T20:38:34.145Z,102449.16
2023-04-16T20:41:20.175Z,102454.44
2023-04-16T20:44:25.430Z,102453.53
2023-04-16T20:47:09.701Z,102458.75
2023-04-16T20:49:54.690Z,102463.13
2023-04-16T20:52:32.580Z,102456.13
2023-04-16T20:55:19.424Z,102457.84
2023-04-16T20:57:56.881Z,102455.22
2023-04-16T21:01:53.362Z,102456.97
2023-04-16T21:04:58.413Z,102456.94
2023-04-16T21:07:38.767Z,102460.44
2023-04-16T21:10:20.033Z,102463.94
2023-04-16T21:12:57.579Z,102463.94
2023-04-16T21:15:35.239Z,102456.03
2023-04-16T21:18:13.370Z,102471.78
2023-04-16T21:20:53.762Z,102466.50
2023-04-16T21:23:31.463Z,102463.88
2023-04-16T21:26:09.014Z,102470.88
2023-04-16T21:28:46.577Z,102464.72
2023-04-16T21:31:24.218Z,102456.88
2023-04-16T21:34:11.104Z,102464.75
2023-04-16T21:36:48.613Z,102464.72
2023-04-16T21:39:30.751Z,102467.34
2023-04-16T21:42:08.179Z,102465.59
2023-04-16T21:44:46.516Z,102462.94
2023-04-16T21:47:24.076Z,102455.06
2023-04-16T21:50:01.535Z,102448.09
2023-04-16T21:52:40.303Z,102460.31
2023-04-16T21:55:18.258Z,102452.44
2023-04-16T21:57:55.714Z,102461.19
2023-04-16T22:00:37.148Z,102449.81
2023-04-16T22:03:17.344Z,102459.44
2023-04-16T22:06:02.392Z,102444.56
2023-04-16T22:08:39.866Z,102447.19
2023-04-16T22:11:17.343Z,102448.06
2023-04-16T22:13:57.827Z,102444.56
2023-04-16T22:16:35.897Z,102446.34
2023-04-16T22:19:14.104Z,102441.06
2023-04-16T22:21:51.561Z,102438.44
2023-04-16T22:24:29.024Z,102436.72
2023-04-16T22:27:06.625Z,102436.72
2023-04-16T22:29:44.216Z,102440.25
2023-04-16T22:32:21.993Z,102442.00
2023-04-16T22:34:59.555Z,102441.13
2023-04-16T22:37:36.998Z,102437.63
2023-04-16T22:40:14.872Z,102440.25
2023-04-16T22:42:52.412Z,102431.50
2023-04-16T22:45:29.903Z,102442.00
2023-04-16T22:48:07.816Z,102440.28
2023-04-16T22:50:48.552Z,102435.91
2023-04-16T22:53:26.114Z,102442.91
2023-04-16T22:56:04.124Z,102445.53
2023-04-16T22:58:41.531Z,102441.13
2023-04-16T23:01:19.047Z,102449.03
2023-04-16T23:03:56.744Z,102444.66
2023-04-16T23:06:34.330Z,102443.78
2023-04-16T23:09:11.989Z,102437.66
2023-04-16T23:11:49.686Z,102434.16
2023-04-16T23:14:27.129Z,102441.13
2023-04-16T23:17:04.590Z,102431.50
2023-04-16T23:19:42.056Z,102439.38
2023-04-16T23:22:21.650Z,102439.38
2023-04-16T23:24:59.109Z,102435.88
2023-04-16T23:27:37.289Z,102428.88
2023-04-16T23:30:15.063Z,102426.22
2023-04-16T23:32:52.610Z,102426.22
2023-04-16T23:35:30.369Z,102424.47
2023-04-16T23:38:07.863Z,102433.19
2023-04-16T23:40:45.354Z,102433.16
2023-04-16T23:43:22.823Z,102438.38
2023-04-16T23:46:00.847Z,102440.09
2023-04-16T23:48:38.281Z,102436.56
2023-04-16T23:51:15.814Z,102438.31
2023-04-16T23:53:53.231Z,102441.81
2023-04-16T23:56:30.841Z,102446.19
2023-04-16T23:59:11.159Z,102448.81
